aviador You're here:

ZSSS Decoded Metar

SHANGHAI in CHINA
Report Time2017-11-19 19:30:00
UTC Time2017-11-19 19:50:43
Flight Rules vfr VFR
Wind360° at 6 kt
W.Decomp.*RWY 36: 6.0 kt HW 0.5 kt RCW
Visibility9999 m
Phenomena:Light Rain
Clouds:Broken 033 Hf
Expected CloudBase > 800 ft AGL from Temp-Dew spread
Ceiling3,300 ft
Temp08°C (ISA -7)
Dew Point06°C (87% RH)
AAT4.9°C
QNH1027 hPa
Density Alt-1,158 ft
Elevation23 ft
Report Wrong Elevation
Raw Report
METAR ZSSS 191930Z 36003MPS 9999 -RA BKN033 08/06 Q1027 NOSIG=

Extra information for ZSSS:More info

Metar Taf Metar & Taf Last 4 Metars F.Rules Stats Wind Profile Meteogram Temp Stats Airport Information Weather charts Add Link Nearby VenuesMetar ALERT Operation Metar Decoded Social comments